Time;durP1;ratioP1;P1;durP2;ratioP2;P2;SDS_P1;SDS_P2;PMS_P1;PMS_P2;Temp;Humidity;BMP_temperature;BMP_pressure;BME280_temperature;BME280_humidity;BME280_pressure;Samples;Min_cycle;Max_cycle;Signal;HPM_P1;HPM_P2
2022/08/19 00:01:29;;;;;;;13.50;11.73;;;17.90;99.90;;;;;;490298;242;28918;-69
2022/08/19 00:03:30;;;;;;;12.00;10.57;;;17.90;99.90;;;;;;490298;242;28887;-68
2022/08/19 00:05:32;;;;;;;13.33;11.30;;;18.00;99.90;;;;;;490343;242;28829;-68
2022/08/19 00:07:33;;;;;;;13.33;11.80;;;18.00;99.90;;;;;;490270;242;28836;-70
2022/08/19 00:09:34;;;;;;;13.47;12.00;;;18.00;99.90;;;;;;490308;242;28932;-68
2022/08/19 00:11:37;;;;;;;14.50;12.17;;;18.00;99.90;;;;;;490310;242;29323;-69
2022/08/19 00:13:38;;;;;;;13.57;11.40;;;17.90;99.90;;;;;;490289;242;29254;-69
2022/08/19 00:15:38;;;;;;;13.80;11.77;;;17.90;99.90;;;;;;490310;242;28800;-70
2022/08/19 00:17:39;;;;;;;13.73;12.23;;;17.80;99.90;;;;;;487560;244;28915;-72
2022/08/19 00:19:41;;;;;;;12.80;10.80;;;17.80;99.90;;;;;;487417;244;28806;-68
2022/08/19 00:21:43;;;;;;;15.37;12.20;;;17.80;99.90;;;;;;490360;242;28839;-68
2022/08/19 00:23:43;;;;;;;14.27;12.00;;;17.80;99.90;;;;;;490316;242;29254;-68
2022/08/19 00:25:44;;;;;;;16.40;13.07;;;17.80;99.90;;;;;;490326;242;28918;-70
2022/08/19 00:27:46;;;;;;;15.13;12.70;;;17.80;99.90;;;;;;490338;242;29399;-70
2022/08/19 00:29:47;;;;;;;14.50;12.77;;;18.00;99.90;;;;;;490358;242;29266;-68
2022/08/19 00:31:49;;;;;;;14.40;12.00;;;18.00;99.90;;;;;;490340;242;28919;-68
2022/08/19 00:33:50;;;;;;;14.27;12.77;;;18.10;99.90;;;;;;490315;242;28867;-69
2022/08/19 00:35:51;;;;;;;14.50;13.00;;;18.10;99.90;;;;;;490210;242;28798;-70
2022/08/19 00:37:52;;;;;;;14.93;12.63;;;18.00;99.90;;;;;;490282;242;28859;-69
2022/08/19 00:39:53;;;;;;;15.03;12.20;;;17.80;99.90;;;;;;490358;242;28902;-68
2022/08/19 00:41:54;;;;;;;12.53;11.23;;;17.80;99.90;;;;;;490338;242;29286;-69
2022/08/19 00:43:56;;;;;;;16.27;13.23;;;17.80;99.90;;;;;;490377;242;29493;-72
2022/08/19 00:45:57;;;;;;;14.53;13.03;;;17.80;99.90;;;;;;490358;242;28877;-70
2022/08/19 00:48:02;;;;;;;15.13;11.90;;;17.80;99.90;;;;;;490321;242;28896;-71
2022/08/19 00:49:59;;;;;;;13.53;12.13;;;17.70;99.90;;;;;;490124;242;28867;-70
2022/08/19 00:52:01;;;;;;;13.77;11.83;;;17.70;99.90;;;;;;490298;242;28858;-70
2022/08/19 00:54:02;;;;;;;14.30;12.30;;;17.70;99.90;;;;;;490354;242;29308;-73
2022/08/19 00:56:05;;;;;;;15.97;13.90;;;17.60;99.90;;;;;;490321;242;29387;-71
2022/08/19 00:58:04;;;;;;;15.67;13.97;;;17.70;99.90;;;;;;490168;242;28850;-71
2022/08/19 01:00:06;;;;;;;15.37;13.63;;;17.80;99.90;;;;;;490343;242;28802;-70
2022/08/19 01:02:07;;;;;;;15.87;14.23;;;18.00;99.90;;;;;;490356;242;28841;-70
2022/08/19 01:04:08;;;;;;;20.80;16.03;;;18.00;99.90;;;;;;490385;242;28854;-73
2022/08/19 01:06:10;;;;;;;25.37;19.30;;;18.10;99.90;;;;;;490234;242;28852;-69
2022/08/19 01:08:11;;;;;;;19.30;16.63;;;18.10;99.90;;;;;;490350;242;29370;-69
2022/08/19 01:10:12;;;;;;;19.50;16.30;;;18.20;99.90;;;;;;490347;242;29283;-71
2022/08/19 01:12:13;;;;;;;17.00;15.20;;;18.20;99.90;;;;;;490358;242;28844;-71
2022/08/19 01:14:15;;;;;;;17.00;15.20;;;18.00;99.90;;;;;;490324;242;28855;-74
2022/08/19 01:16:16;;;;;;;16.47;14.77;;;17.90;99.90;;;;;;490212;242;28815;-70
2022/08/19 01:18:17;;;;;;;15.77;14.07;;;17.70;99.90;;;;;;490346;242;28922;-70
2022/08/19 01:20:19;;;;;;;15.73;13.97;;;17.60;99.90;;;;;;490341;242;28895;-69
2022/08/19 01:22:20;;;;;;;16.40;14.30;;;17.50;99.90;;;;;;490341;242;29396;-69
2022/08/19 01:24:21;;;;;;;15.30;13.67;;;17.60;99.90;;;;;;490358;242;30232;-71
2022/08/19 01:26:22;;;;;;;16.13;14.20;;;17.60;99.90;;;;;;490261;242;28930;-70
2022/08/19 01:28:25;;;;;;;15.97;14.10;;;17.60;99.90;;;;;;490347;242;28955;-70
2022/08/19 01:30:25;;;;;;;17.30;14.33;;;17.60;99.90;;;;;;490247;242;28932;-69
2022/08/19 01:32:26;;;;;;;16.00;14.30;;;17.70;99.90;;;;;;490370;242;28899;-69
2022/08/19 01:34:27;;;;;;;16.97;15.10;;;17.80;99.90;;;;;;490342;242;28855;-71
2022/08/19 01:36:28;;;;;;;15.90;14.20;;;17.90;99.90;;;;;;490095;242;29294;-70
2022/08/19 01:38:31;;;;;;;15.23;13.73;;;17.90;99.90;;;;;;490345;242;29350;-70
2022/08/19 01:40:31;;;;;;;16.80;14.67;;;18.00;99.90;;;;;;490270;242;28936;-69
2022/08/19 01:42:32;;;;;;;16.53;14.83;;;17.80;99.90;;;;;;490349;242;28832;-70
2022/08/19 01:44:36;;;;;;;15.27;13.60;;;17.70;99.90;;;;;;490329;242;28845;-71
2022/08/19 01:46:35;;;;;;;13.57;12.17;;;17.70;99.90;;;;;;490140;242;28829;-70
2022/08/19 01:48:36;;;;;;;14.70;13.30;;;17.70;99.90;;;;;;490341;242;28853;-70
2022/08/19 01:50:37;;;;;;;14.47;12.97;;;17.70;99.90;;;;;;490344;242;30058;-70
2022/08/19 01:52:38;;;;;;;14.37;12.90;;;17.70;99.90;;;;;;490329;242;29277;-69
2022/08/19 01:54:40;;;;;;;13.73;12.33;;;17.70;99.90;;;;;;490355;242;28869;-71
2022/08/19 01:56:41;;;;;;;13.87;12.37;;;17.80;99.90;;;;;;490283;242;28940;-69
2022/08/19 01:58:42;;;;;;;15.20;13.60;;;17.70;99.90;;;;;;490350;242;28856;-70
2022/08/19 02:00:43;;;;;;;15.30;13.70;;;17.80;99.90;;;;;;490386;242;28902;-72
2022/08/19 02:02:45;;;;;;;14.63;13.00;;;17.90;99.90;;;;;;490373;242;28829;-69
2022/08/19 02:04:46;;;;;;;14.70;13.20;;;17.90;99.90;;;;;;490389;242;29318;-70
2022/08/19 02:06:47;;;;;;;16.00;13.83;;;17.90;99.90;;;;;;490318;242;29296;-69
2022/08/19 02:08:49;;;;;;;14.60;13.10;;;17.80;99.90;;;;;;490347;242;28940;-70
2022/08/19 02:10:50;;;;;;;14.37;12.97;;;17.80;99.90;;;;;;490341;242;28848;-69
2022/08/19 02:12:51;;;;;;;14.70;12.97;;;17.70;99.90;;;;;;490376;242;28834;-70
2022/08/19 02:14:52;;;;;;;13.73;12.30;;;17.70;99.90;;;;;;490229;242;28883;-70
2022/08/19 02:16:54;;;;;;;15.00;12.73;;;17.70;99.90;;;;;;490299;238;28812;-70
2022/08/19 02:18:55;;;;;;;14.30;12.80;;;17.60;99.90;;;;;;490374;242;29383;-70
2022/08/19 02:20:56;;;;;;;13.73;12.30;;;17.50;99.90;;;;;;490290;242;29414;-73
2022/08/19 02:22:57;;;;;;;13.40;12.00;;;17.40;99.90;;;;;;490394;242;28907;-71
2022/08/19 02:24:59;;;;;;;18.00;13.73;;;17.40;99.90;;;;;;490367;242;28944;-70
2022/08/19 02:27:00;;;;;;;17.70;14.20;;;17.40;99.90;;;;;;490310;242;28958;-69
2022/08/19 02:29:01;;;;;;;14.23;12.80;;;17.40;99.90;;;;;;490367;242;29346;-70
2022/08/19 02:31:02;;;;;;;14.73;12.53;;;17.40;99.90;;;;;;490396;242;28927;-72
2022/08/19 02:33:04;;;;;;;13.63;12.23;;;17.40;99.90;;;;;;490386;242;28814;-70
2022/08/19 02:35:05;;;;;;;14.30;12.80;;;17.50;99.90;;;;;;490255;242;28973;-70
2022/08/19 02:38:24;;;;;;;15.40;13.70;;;17.50;99.90;;;;;;490191;242;28887;-69
2022/08/19 02:39:07;;;;;;;15.07;13.20;;;17.50;99.90;;;;;;488891;242;29372;-70
2022/08/19 02:41:09;;;;;;;14.40;12.90;;;17.50;99.90;;;;;;490381;242;29304;-71
2022/08/19 02:43:10;;;;;;;13.70;12.30;;;17.50;99.90;;;;;;490344;242;28852;-69
2022/08/19 02:45:11;;;;;;;13.93;12.53;;;17.40;99.90;;;;;;490336;242;28950;-70
2022/08/19 02:47:14;;;;;;;13.93;12.53;;;17.30;99.90;;;;;;490297;242;28814;-69
2022/08/19 02:49:16;;;;;;;13.90;12.47;;;17.30;99.90;;;;;;490244;242;29259;-70
2022/08/19 02:51:15;;;;;;;15.17;13.57;;;17.30;99.90;;;;;;490251;242;29387;-71
2022/08/19 02:53:16;;;;;;;14.03;12.60;;;17.20;99.90;;;;;;490369;242;28801;-70
2022/08/19 02:55:18;;;;;;;14.87;12.67;;;17.30;99.90;;;;;;490343;242;28865;-70
2022/08/19 02:57:19;;;;;;;15.03;12.73;;;17.30;99.90;;;;;;490325;242;28854;-70
2022/08/19 02:59:20;;;;;;;14.67;13.17;;;17.30;99.90;;;;;;490377;242;28932;-69
2022/08/19 03:01:21;;;;;;;15.23;12.87;;;17.30;99.90;;;;;;490272;242;28929;-70
2022/08/19 03:03:23;;;;;;;13.43;12.07;;;17.30;99.90;;;;;;490370;242;29263;-70
2022/08/19 03:05:24;;;;;;;13.47;12.03;;;17.30;99.90;;;;;;490327;242;28942;-70
2022/08/19 03:07:25;;;;;;;14.70;13.20;;;17.20;99.90;;;;;;490304;242;28836;-69
2022/08/19 03:09:26;;;;;;;14.77;13.10;;;17.20;99.90;;;;;;490390;242;28895;-69
2022/08/19 03:11:28;;;;;;;13.83;12.43;;;17.20;99.90;;;;;;490369;242;28877;-71
2022/08/19 03:13:29;;;;;;;14.07;12.53;;;17.10;99.90;;;;;;490362;242;28803;-69
2022/08/19 03:15:30;;;;;;;14.40;12.57;;;17.10;99.90;;;;;;490360;242;29305;-70
2022/08/19 03:17:31;;;;;;;13.73;12.33;;;17.10;99.90;;;;;;490308;242;29516;-69
2022/08/19 03:19:33;;;;;;;14.77;13.17;;;17.10;99.90;;;;;;490362;242;28867;-69
2022/08/19 03:21:34;;;;;;;14.77;13.27;;;17.10;99.90;;;;;;490377;242;28930;-70
2022/08/19 03:23:35;;;;;;;15.23;13.33;;;17.10;99.90;;;;;;490364;242;28889;-69
2022/08/19 03:25:37;;;;;;;18.43;13.93;;;17.10;99.90;;;;;;490329;242;28857;-69
2022/08/19 03:27:38;;;;;;;15.10;13.50;;;17.20;99.90;;;;;;490318;242;28874;-72
2022/08/19 03:29:39;;;;;;;15.03;13.43;;;17.20;99.90;;;;;;490382;242;29274;-69
2022/08/19 03:31:40;;;;;;;14.90;13.30;;;17.20;99.90;;;;;;490357;242;29432;-70
2022/08/19 03:33:41;;;;;;;14.37;12.50;;;17.20;99.90;;;;;;490334;242;28822;-70
2022/08/19 03:35:44;;;;;;;15.20;13.60;;;17.30;99.90;;;;;;490244;242;28920;-70
2022/08/19 03:37:44;;;;;;;14.33;12.93;;;17.20;99.90;;;;;;490198;242;29235;-71
2022/08/19 03:39:45;;;;;;;16.20;13.40;;;17.10;99.90;;;;;;490390;242;28822;-70
2022/08/19 03:41:46;;;;;;;14.43;12.90;;;17.00;99.90;;;;;;490391;242;28897;-69
2022/08/19 03:43:48;;;;;;;14.63;13.10;;;16.90;99.90;;;;;;490184;242;29357;-69
2022/08/19 03:45:49;;;;;;;13.67;12.27;;;16.90;99.90;;;;;;490361;242;29356;-69
2022/08/19 03:47:50;;;;;;;15.37;13.30;;;16.80;99.90;;;;;;490345;242;28867;-73
2022/08/19 03:49:52;;;;;;;15.53;13.77;;;16.90;99.90;;;;;;490364;242;28799;-69
2022/08/19 03:51:53;;;;;;;19.23;14.20;;;16.70;99.90;;;;;;490390;242;28900;-70
2022/08/19 03:53:54;;;;;;;15.40;13.80;;;16.70;99.90;;;;;;490373;242;28873;-69
2022/08/19 03:55:55;;;;;;;17.23;13.87;;;16.60;99.90;;;;;;490350;242;28850;-70
2022/08/19 03:57:57;;;;;;;16.43;14.13;;;16.60;99.90;;;;;;490335;242;29311;-72
2022/08/19 03:59:58;;;;;;;16.00;14.17;;;16.60;99.90;;;;;;490366;242;29384;-70
2022/08/19 04:01:59;;;;;;;16.10;14.20;;;16.60;99.90;;;;;;490375;242;28855;-71
2022/08/19 04:04:00;;;;;;;14.60;13.10;;;16.70;99.90;;;;;;490338;242;28868;-70
2022/08/19 04:06:02;;;;;;;14.30;12.80;;;16.60;99.90;;;;;;488133;241;28903;-70
2022/08/19 04:08:03;;;;;;;14.93;13.33;;;16.60;99.90;;;;;;481727;245;29058;-72
2022/08/19 04:10:04;;;;;;;13.83;12.43;;;16.60;99.90;;;;;;482067;245;28932;-70
2022/08/19 04:12:05;;;;;;;14.47;12.30;;;16.60;99.90;;;;;;481712;245;30326;-71
2022/08/19 04:14:07;;;;;;;15.67;13.90;;;16.50;99.90;;;;;;482069;245;30423;-69
2022/08/19 04:16:09;;;;;;;13.97;12.57;;;16.40;99.90;;;;;;482138;245;28949;-69
2022/08/19 04:18:09;;;;;;;14.77;13.27;;;16.50;99.90;;;;;;482117;246;28928;-72
2022/08/19 04:20:10;;;;;;;15.63;13.17;;;16.50;99.90;;;;;;482197;246;28895;-70
2022/08/19 04:22:12;;;;;;;14.57;13.00;;;16.40;99.90;;;;;;482192;245;28981;-69
2022/08/19 04:24:13;;;;;;;13.87;12.47;;;16.40;99.90;;;;;;482213;245;29035;-73
2022/08/19 04:26:15;;;;;;;13.37;12.07;;;16.40;99.90;;;;;;482135;245;29319;-69
2022/08/19 04:28:15;;;;;;;18.90;14.00;;;16.40;99.90;;;;;;482156;245;29431;-70
2022/08/19 04:30:17;;;;;;;15.63;14.03;;;16.40;99.90;;;;;;482202;245;28849;-69
2022/08/19 04:32:18;;;;;;;14.90;13.27;;;16.40;99.90;;;;;;482156;245;28977;-71
2022/08/19 04:34:22;;;;;;;16.30;14.50;;;16.40;99.90;;;;;;482210;245;29235;-69
2022/08/19 04:36:21;;;;;;;15.47;13.77;;;16.40;99.90;;;;;;481886;246;28990;-69
2022/08/19 04:38:24;;;;;;;16.63;14.80;;;16.40;99.90;;;;;;482163;245;29383;-69
2022/08/19 04:42:45;;;;;;;15.27;13.67;;;16.40;99.90;;;;;;482174;246;28852;-69
2022/08/19 04:44:46;;;;;;;15.10;13.50;;;16.40;99.90;;;;;;482161;245;28887;-70
2022/08/19 04:46:48;;;;;;;14.80;13.30;;;16.40;99.90;;;;;;482115;245;29375;-72
2022/08/19 04:48:49;;;;;;;14.73;13.23;;;16.30;99.90;;;;;;482198;245;29487;-69
2022/08/19 04:50:50;;;;;;;22.50;13.37;;;16.30;99.90;;;;;;482200;245;28903;-70
2022/08/19 04:52:52;;;;;;;14.77;13.27;;;16.30;99.90;;;;;;482138;245;29014;-69
2022/08/19 04:54:55;;;;;;;14.97;13.47;;;16.20;99.90;;;;;;482166;245;28892;-69
2022/08/19 04:56:54;;;;;;;16.03;14.40;;;16.10;99.90;;;;;;482045;245;28974;-71
2022/08/19 04:58:55;;;;;;;14.40;13.00;;;16.00;99.90;;;;;;482154;245;28862;-70
2022/08/19 05:00:57;;;;;;;15.20;13.60;;;16.00;99.90;;;;;;482132;245;29397;-70
2022/08/19 05:02:58;;;;;;;14.57;12.90;;;16.00;99.90;;;;;;482120;245;29386;-70
2022/08/19 05:05:02;;;;;;;13.90;12.40;;;16.10;99.90;;;;;;482149;245;28880;-70
2022/08/19 05:07:03;;;;;;;14.40;12.93;;;16.10;99.90;;;;;;482100;245;28865;-70
2022/08/19 05:09:05;;;;;;;13.77;12.37;;;16.10;99.90;;;;;;482188;245;28982;-70
2022/08/19 05:11:06;;;;;;;13.90;12.07;;;16.10;99.90;;;;;;482192;245;29296;-69
2022/08/19 05:13:10;;;;;;;14.63;12.00;;;16.20;99.90;;;;;;482199;245;29344;-70
2022/08/19 05:15:08;;;;;;;13.53;12.17;;;16.30;99.90;;;;;;482011;246;28901;-73
2022/08/19 05:17:09;;;;;;;13.30;11.80;;;16.40;99.90;;;;;;482121;245;28838;-70
2022/08/19 05:23:50;;;;;;;14.43;12.40;;;16.70;99.90;;;;;;482157;246;31180;-69
2022/08/19 05:25:51;;;;;;;12.93;10.80;;;16.70;99.90;;;;;;482196;245;28908;-69
2022/08/19 05:27:53;;;;;;;14.07;12.67;;;16.70;99.90;;;;;;482118;245;28915;-71
2022/08/19 05:29:54;;;;;;;13.10;11.90;;;16.70;99.90;;;;;;482185;245;28919;-69
2022/08/19 05:31:55;;;;;;;12.77;11.57;;;16.60;99.90;;;;;;482154;245;28974;-70
2022/08/19 05:33:58;;;;;;;12.90;11.60;;;16.70;99.90;;;;;;482213;245;28949;-69
2022/08/19 05:35:58;;;;;;;13.70;12.40;;;16.70;99.90;;;;;;482022;246;29451;-69
2022/08/19 05:37:59;;;;;;;13.07;11.80;;;16.80;99.90;;;;;;482183;245;28916;-70
2022/08/19 05:40:01;;;;;;;13.10;11.80;;;16.90;99.90;;;;;;482207;245;29412;-70
2022/08/19 05:42:02;;;;;;;13.60;12.30;;;16.90;99.90;;;;;;482197;245;29454;-70
2022/08/19 05:44:05;;;;;;;13.33;12.10;;;17.00;99.90;;;;;;482175;245;28885;-72
2022/08/19 05:46:05;;;;;;;13.70;12.40;;;17.10;99.90;;;;;;482026;246;28930;-70
2022/08/19 05:48:06;;;;;;;12.57;11.37;;;17.10;99.90;;;;;;482151;245;28903;-70
2022/08/19 05:50:07;;;;;;;12.93;11.63;;;17.10;99.90;;;;;;482195;245;29404;-70
2022/08/19 05:52:08;;;;;;;13.80;12.30;;;17.20;99.90;;;;;;482119;246;29266;-69
2022/08/19 05:54:11;;;;;;;13.00;11.63;;;17.40;99.90;;;;;;482230;245;29400;-74
2022/08/19 05:56:11;;;;;;;12.60;11.40;;;17.50;99.90;;;;;;482140;245;28858;-70
2022/08/19 05:58:12;;;;;;;12.43;11.23;;;17.70;99.90;;;;;;482250;245;28893;-71
2022/08/19 06:00:13;;;;;;;12.20;11.10;;;17.80;99.90;;;;;;482228;245;28759;-69
2022/08/19 06:02:14;;;;;;;12.83;11.60;;;17.90;99.90;;;;;;482220;245;28886;-70
2022/08/19 06:04:18;;;;;;;12.03;10.83;;;18.00;99.90;;;;;;482235;245;28871;-71
2022/08/19 06:06:17;;;;;;;12.50;11.40;;;18.10;99.90;;;;;;481994;246;29231;-70
2022/08/19 06:08:19;;;;;;;13.47;12.07;;;18.30;99.90;;;;;;482205;245;29473;-70
2022/08/19 06:10:21;;;;;;;13.27;12.03;;;18.40;99.90;;;;;;482161;245;30518;-70
2022/08/19 06:12:30;;;;;;;12.47;11.27;;;18.50;99.90;;;;;;482197;245;28933;-70
2022/08/19 06:14:22;;;;;;;12.50;11.30;;;18.50;99.90;;;;;;481484;241;28930;-76
2022/08/19 06:16:23;;;;;;;13.47;12.17;;;18.60;99.90;;;;;;487420;241;29366;-70
2022/08/19 06:18:25;;;;;;;11.37;10.37;;;18.70;99.90;;;;;;495910;239;29325;-70
2022/08/19 06:20:26;;;;;;;12.00;10.80;;;18.70;99.90;;;;;;495781;240;29378;-72
2022/08/19 06:22:27;;;;;;;11.87;10.77;;;18.70;99.90;;;;;;493699;240;28894;-70
2022/08/19 06:24:28;;;;;;;11.97;10.77;;;18.70;99.90;;;;;;486698;244;28981;-71
2022/08/19 06:26:30;;;;;;;12.50;11.30;;;18.80;99.90;;;;;;486641;244;28950;-70
2022/08/19 06:28:32;;;;;;;11.80;10.70;;;18.90;99.90;;;;;;486692;244;29424;-70
2022/08/19 06:30:32;;;;;;;10.63;9.73;;;18.90;99.90;;;;;;486657;244;29455;-72
2022/08/19 06:32:33;;;;;;;10.57;9.63;;;19.00;99.90;;;;;;487404;244;28739;-70
2022/08/19 06:34:35;;;;;;;10.47;9.47;;;19.00;99.90;;;;;;480946;247;28883;-71
2022/08/19 06:36:36;;;;;;;10.13;9.23;;;19.10;99.90;;;;;;480827;246;28953;-70
2022/08/19 06:38:37;;;;;;;11.63;9.70;;;19.10;99.90;;;;;;480923;246;28951;-70
2022/08/19 06:40:38;;;;;;;11.00;9.33;;;19.20;99.90;;;;;;480689;246;28951;-72
2022/08/19 06:42:40;;;;;;;10.00;9.10;;;19.30;99.90;;;;;;480859;247;29375;-72
2022/08/19 06:44:41;;;;;;;10.40;9.30;;;19.30;99.90;;;;;;481677;246;29492;-70
2022/08/19 06:46:42;;;;;;;9.70;8.80;;;19.40;99.90;;;;;;482083;245;30104;-68
2022/08/19 06:48:44;;;;;;;10.63;9.73;;;19.40;99.90;;;;;;482082;245;28922;-71
2022/08/19 06:50:45;;;;;;;10.37;9.20;;;19.50;99.90;;;;;;482103;245;28971;-72
2022/08/19 06:52:47;;;;;;;11.50;10.33;;;19.50;99.90;;;;;;482141;246;28861;-70
2022/08/19 06:54:47;;;;;;;9.90;8.93;;;19.50;99.90;;;;;;482058;245;29395;-70
2022/08/19 06:56:49;;;;;;;9.80;8.80;;;19.60;99.90;;;;;;482066;245;28891;-70
2022/08/19 06:58:52;;;;;;;11.37;10.17;;;19.60;99.90;;;;;;482103;246;28892;-70
2022/08/19 07:00:51;;;;;;;11.70;10.57;;;19.60;99.90;;;;;;481978;245;28996;-71
2022/08/19 07:02:52;;;;;;;10.50;9.50;;;19.70;99.90;;;;;;482130;245;29335;-70
2022/08/19 07:04:55;;;;;;;11.83;10.73;;;19.70;99.90;;;;;;482111;245;29403;-70
2022/08/19 07:06:55;;;;;;;12.30;11.00;;;19.80;99.90;;;;;;481999;246;29161;-70
2022/08/19 07:08:57;;;;;;;10.80;9.80;;;19.80;99.90;;;;;;482123;245;28861;-73
2022/08/19 07:10:57;;;;;;;10.50;9.40;;;19.90;99.90;;;;;;480882;244;28984;-72
2022/08/19 07:12:59;;;;;;;10.73;9.63;;;20.00;99.90;;;;;;478181;245;28858;-70
2022/08/19 07:15:00;;;;;;;12.30;10.97;;;20.00;99.90;;;;;;480613;245;28984;-71
2022/08/19 07:17:01;;;;;;;12.07;10.87;;;20.00;99.90;;;;;;492919;240;29485;-73
2022/08/19 07:19:02;;;;;;;12.13;10.90;;;20.00;99.90;;;;;;487240;244;29370;-70
2022/08/19 07:21:04;;;;;;;11.43;10.27;;;20.10;99.90;;;;;;486794;244;28892;-71
2022/08/19 07:23:05;;;;;;;13.60;11.47;;;20.10;99.90;;;;;;486660;244;28854;-70
2022/08/19 07:25:06;;;;;;;12.40;11.10;;;20.20;99.90;;;;;;486748;244;28933;-70
2022/08/19 07:27:09;;;;;;;12.67;10.83;;;20.10;99.90;;;;;;484235;243;29442;-74
2022/08/19 07:29:09;;;;;;;12.60;11.30;;;20.20;99.90;;;;;;480348;245;28841;-70
2022/08/19 07:31:13;;;;;;;13.60;11.30;;;20.20;99.90;;;;;;477426;248;28983;-71
2022/08/19 07:33:11;;;;;;;9.63;8.73;;;20.20;99.90;;;;;;483718;244;29261;-70
2022/08/19 07:37:16;;;;;;;10.80;9.70;;;20.30;99.90;;;;;;470200;247;28946;-70
2022/08/19 07:39:18;;;;;;;11.30;10.10;;;20.30;99.90;;;;;;476903;247;29001;-70
2022/08/19 07:41:19;;;;;;;11.70;10.30;;;20.30;99.90;;;;;;468887;252;29370;-71
2022/08/19 07:43:24;;;;;;;12.43;10.93;;;20.40;99.90;;;;;;470915;252;29627;-73
2022/08/19 07:45:21;;;;;;;12.80;11.50;;;20.40;99.90;;;;;;470630;252;28828;-72
2022/08/19 07:47:22;;;;;;;14.50;10.80;;;20.30;99.90;;;;;;472586;250;28749;-72
2022/08/19 07:49:24;;;;;;;12.20;11.00;;;20.30;99.90;;;;;;461609;257;28952;-70
2022/08/19 07:51:25;;;;;;;10.70;9.60;;;20.30;99.90;;;;;;478598;247;28916;-70
2022/08/19 07:53:26;;;;;;;12.90;9.67;;;20.30;99.90;;;;;;478610;247;29389;-73
2022/08/19 07:55:27;;;;;;;10.00;9.10;;;20.40;99.90;;;;;;480234;247;29234;-70
2022/08/19 07:57:29;;;;;;;12.07;10.43;;;20.40;99.90;;;;;;470906;252;29240;-70
2022/08/19 07:59:30;;;;;;;10.43;9.40;;;20.40;99.90;;;;;;470966;252;28788;-70
2022/08/19 08:01:31;;;;;;;10.40;9.40;;;20.50;99.90;;;;;;479310;248;28893;-71
2022/08/19 08:10:32;;;;;;;16.93;13.00;;;20.60;99.90;;;;;;470925;252;29241;-70
2022/08/19 08:12:33;;;;;;;13.57;12.17;;;20.60;99.90;;;;;;470854;252;28791;-75
2022/08/19 08:14:35;;;;;;;12.67;11.33;;;20.60;99.90;;;;;;470955;252;28704;-70
2022/08/19 08:16:35;;;;;;;12.47;11.27;;;20.70;99.90;;;;;;470893;252;28764;-71
2022/08/19 08:18:41;;;;;;;13.33;11.83;;;20.70;99.90;;;;;;470846;252;29172;-70
2022/08/19 08:20:38;;;;;;;15.47;10.77;;;20.60;99.90;;;;;;470586;252;29296;-70
2022/08/19 08:24:59;;;;;;;10.07;9.17;;;20.70;99.90;;;;;;470756;252;28823;-70
2022/08/19 08:27:00;;;;;;;11.73;10.43;;;20.80;99.90;;;;;;470822;252;28793;-70
2022/08/19 08:29:01;;;;;;;12.90;10.10;;;20.70;99.90;;;;;;470924;252;28827;-73
2022/08/19 08:31:02;;;;;;;11.57;10.27;;;20.80;99.90;;;;;;470869;248;29217;-70
2022/08/19 08:33:04;;;;;;;11.23;10.03;;;20.90;99.90;;;;;;470822;252;29361;-70
2022/08/19 08:35:05;;;;;;;12.00;10.77;;;21.00;99.90;;;;;;470933;252;28844;-70
2022/08/19 08:37:06;;;;;;;14.87;13.00;;;20.90;99.90;;;;;;468993;252;29024;-70
2022/08/19 08:39:07;;;;;;;15.17;11.87;;;20.90;99.90;;;;;;476112;250;28923;-73
2022/08/19 08:41:09;;;;;;;14.33;12.33;;;20.90;99.90;;;;;;476116;250;29096;-72
2022/08/19 08:43:10;;;;;;;10.37;9.33;;;21.10;99.90;;;;;;476008;250;28916;-70
2022/08/19 08:45:12;;;;;;;12.63;9.73;;;21.20;99.90;;;;;;476121;250;29505;-70
2022/08/19 08:47:12;;;;;;;13.43;11.07;;;21.30;99.90;;;;;;476037;250;29316;-69
2022/08/19 08:49:14;;;;;;;12.90;11.20;;;21.20;99.90;;;;;;476050;250;28967;-71
2022/08/19 08:51:15;;;;;;;11.83;10.73;;;21.20;99.90;;;;;;469479;250;28933;-71
2022/08/19 08:53:16;;;;;;;14.07;12.43;;;21.20;99.90;;;;;;476934;249;28930;-71
2022/08/19 08:55:19;;;;;;;12.07;10.50;;;21.10;99.90;;;;;;477755;249;29274;-74
2022/08/19 08:57:19;;;;;;;12.17;10.60;;;21.10;99.90;;;;;;478011;249;28810;-70
2022/08/19 08:59:20;;;;;;;13.97;12.27;;;21.10;99.90;;;;;;478146;249;28858;-72
2022/08/19 09:01:22;;;;;;;11.97;10.77;;;21.10;99.90;;;;;;477164;249;28859;-70
2022/08/19 09:03:23;;;;;;;12.07;10.70;;;21.10;99.90;;;;;;477204;249;28925;-71
2022/08/19 09:05:24;;;;;;;11.43;9.90;;;21.10;99.90;;;;;;477221;249;28926;-73
2022/08/19 09:07:26;;;;;;;10.00;9.10;;;21.10;99.90;;;;;;477121;249;29448;-69
2022/08/19 09:09:30;;;;;;;10.70;9.57;;;21.10;99.90;;;;;;477167;249;29422;-70
2022/08/19 09:11:28;;;;;;;10.77;9.60;;;21.10;99.90;;;;;;477110;249;28882;-71
2022/08/19 09:13:30;;;;;;;14.07;11.80;;;21.10;99.90;;;;;;477086;249;29051;-71
2022/08/19 09:15:30;;;;;;;12.00;10.10;;;21.00;99.90;;;;;;477158;249;29018;-72
2022/08/19 09:17:33;;;;;;;14.23;10.30;;;21.10;99.90;;;;;;476836;249;28984;-70
2022/08/19 09:19:33;;;;;;;10.50;9.50;;;21.10;99.90;;;;;;477193;249;29359;-70
2022/08/19 09:21:38;;;;;;;10.30;9.17;;;21.10;99.90;;;;;;477236;249;29329;-69
2022/08/19 09:23:35;;;;;;;12.83;10.30;;;21.20;99.90;;;;;;477172;249;29407;-70
2022/08/19 09:25:37;;;;;;;11.47;10.37;;;21.30;99.90;;;;;;477241;249;28917;-73
2022/08/19 09:27:38;;;;;;;12.53;11.33;;;21.50;99.90;;;;;;477162;249;28854;-72
2022/08/19 09:29:39;;;;;;;12.90;11.70;;;21.40;99.90;;;;;;477198;249;28997;-71
2022/08/19 09:31:40;;;;;;;11.13;10.17;;;21.60;99.90;;;;;;477138;249;28893;-70
2022/08/19 09:33:43;;;;;;;11.00;10.00;;;21.80;99.90;;;;;;477143;249;28963;-71
2022/08/19 09:35:43;;;;;;;10.47;9.47;;;21.80;99.90;;;;;;477212;249;29377;-72
2022/08/19 09:37:44;;;;;;;10.73;9.43;;;21.90;99.90;;;;;;477605;248;29324;-70
2022/08/19 09:39:45;;;;;;;8.43;7.63;;;21.90;99.90;;;;;;478304;248;28962;-71
2022/08/19 09:41:46;;;;;;;8.07;7.47;;;22.00;99.90;;;;;;478330;248;28918;-69
2022/08/19 09:43:48;;;;;;;8.17;7.23;;;22.10;99.90;;;;;;478281;248;28870;-70
2022/08/19 09:45:49;;;;;;;7.00;6.30;;;22.30;99.90;;;;;;478363;248;28906;-72
2022/08/19 09:47:50;;;;;;;6.27;5.77;;;22.30;99.90;;;;;;478318;248;28865;-70
2022/08/19 09:49:51;;;;;;;6.17;5.63;;;22.30;99.90;;;;;;478294;248;28916;-71
2022/08/19 09:51:55;;;;;;;5.73;5.33;;;22.30;99.90;;;;;;478336;244;28911;-73
2022/08/19 09:53:57;;;;;;;5.57;5.07;;;22.30;99.90;;;;;;478356;248;28908;-73
2022/08/19 09:55:58;;;;;;;6.43;5.30;;;22.30;99.90;;;;;;478277;248;29404;-69
2022/08/19 09:57:59;;;;;;;9.03;5.50;;;22.30;99.90;;;;;;478326;248;29376;-70
2022/08/19 10:00:00;;;;;;;7.30;6.40;;;22.30;99.90;;;;;;478286;248;29424;-70
2022/08/19 10:02:02;;;;;;;6.50;5.80;;;22.30;99.90;;;;;;478359;248;29462;-69
2022/08/19 10:04:08;;;;;;;6.30;5.70;;;22.40;99.90;;;;;;478354;248;28921;-71
2022/08/19 10:06:04;;;;;;;6.10;5.60;;;22.60;99.90;;;;;;478254;248;28907;-71
2022/08/19 10:08:05;;;;;;;6.53;5.80;;;22.40;99.90;;;;;;478334;248;28933;-72
2022/08/19 10:10:07;;;;;;;5.60;5.20;;;22.40;99.90;;;;;;478283;248;28867;-70
2022/08/19 10:12:08;;;;;;;6.17;5.67;;;22.60;99.90;;;;;;478338;248;28938;-70
2022/08/19 10:14:09;;;;;;;8.10;5.60;;;22.60;99.90;;;;;;478355;248;28924;-73
2022/08/19 10:16:10;;;;;;;6.00;5.50;;;22.70;99.90;;;;;;478240;248;28883;-70
2022/08/19 10:18:12;;;;;;;5.90;5.37;;;22.70;99.90;;;;;;478349;248;28916;-70
2022/08/19 10:20:13;;;;;;;5.73;5.33;;;22.60;99.90;;;;;;478154;248;29334;-70
2022/08/19 10:22:15;;;;;;;5.43;5.00;;;22.60;99.90;;;;;;477340;248;29464;-70
2022/08/19 10:24:16;;;;;;;6.97;5.90;;;22.60;99.90;;;;;;479287;245;28798;-76
2022/08/19 10:26:17;;;;;;;6.17;5.77;;;22.60;99.90;;;;;;477651;246;28907;-71
2022/08/19 10:28:18;;;;;;;6.47;6.03;;;22.80;99.90;;;;;;476838;248;29422;-72
2022/08/19 10:30:19;;;;;;;6.00;5.43;;;22.90;99.90;;;;;;478307;248;29210;-70
2022/08/19 10:32:21;;;;;;;6.10;5.60;;;22.80;99.90;;;;;;477185;248;28954;-70
2022/08/19 10:34:22;;;;;;;7.50;5.83;;;23.00;99.90;;;;;;478798;248;29356;-72
2022/08/19 10:36:23;;;;;;;6.90;6.33;;;23.00;99.90;;;;;;478284;248;29408;-70